Details From EGPK - Prestwick
To RJAA - Narita Intl
Flight Number -
Tags Generated
Created
Modified
Stats Distance 5,041 nm / 9,335 km
Max Altitude 0 ft / 0 m
Waypoints 12
Social Downloads 1
Likes 0
Share VATSIM

Download

Looking for another format? Having issues loading an existing format? Contact us
Advertisement - Login to hide

Notes

Generated

Route

EGPK LEBDO HTK LARIL LEBKA MARSI SONOL KULIB OLOTO PERID HKE RJAA

ID Type Via Altitude Latitude Longitude Leg Dist Tot Dist Heading (true) Name
O EGPK APT - 0 ft / 0 m 55.48836˚ -4.58741˚ - 0 nm - -
LEBDO FIX - 0 ft / 0 m 67.64306˚ 14.18250˚ 898 nm 898 nm 28° / 45° -
HTK NDB - 0 ft / 0 m 69.92638˚ 21.00303˚ 201 nm 1099 nm 44° / 50° HESTVIK NDB
LARIL FIX - 0 ft / 0 m 71.98917˚ 30.00000˚ 215 nm 1315 nm 51° / 59° -
LEBKA FIX - 0 ft / 0 m 73.50000˚ 81.95000˚ 900 nm 2215 nm 60° / 110° -
MARSI FIX - 0 ft / 0 m 64.91333˚ 115.32000˚ 859 nm 3075 nm 109° / 141° -
SONOL FIX - 0 ft / 0 m 62.01667˚ 120.53833˚ 223 nm 3298 nm 139° / 143° -
KULIB FIX - 0 ft / 0 m 58.86667˚ 124.71667˚ 225 nm 3524 nm 145° / 149° -
OLOTO FIX - 0 ft / 0 m 55.92500˚ 127.86667˚ 203 nm 3728 nm 149° / 151° -
PERID FIX - 0 ft / 0 m 49.33333˚ 133.26667˚ 441 nm 4170 nm 151° / 156° -
HKE VOR - 0 ft / 0 m 35.80896˚ 140.37539˚ 869 nm 5040 nm 156° / 161° HOKUSO VOR-DME
O RJAA APT - 0 ft / 0 m 35.80271˚ 140.37991˚ 0 nm 5040 nm 150° / 150° -

Altitude Profile

Advertisement - Login to hide

Weather


0- 5 10 15 20 25 30 35+ Temperature / ° C

Clouds and Precipitation
Forecast for 2017-12-14 18:00 UTC. Updated an hour ago

Ground ~20,000 ft ~40,000 ft Winds

EGPK

Details ICAO EGPK (PIK)
Name Prestwick
Region United Kingdom
Timezone Europe/London (UTC+0.0)
Stats Elevation 65 ft / 20 m (AMSL)
Location 55.502302° -4.588363°
Runways 2
Magnetic Variation 2.728° W

METAR

EGPK 141820Z 33006KT 9999 FEW012 SCT023 04/02 Q0983

Decode

TAF

TAF TAF EGPK 141702Z 1418/1518 VRB05KT 9999 SCT025 TEMPO 1418/1423 6000 SHRA BKN010 BECMG 1503/1506 33010KT

Decode

Departure Runways

ID Width Length Bearing (true) Bearing (mag) Surface Threshold Offset Overrun Length
03 148 ft / 45 m 6,534 ft / 1,992 m 23.69° 26.42° Asphalt 538 ft / 164 m 0 ft / 0 m
13 151 ft / 46 m 9,789 ft / 2,984 m 121.38° 124.11° Asphalt 817 ft / 249 m 0 ft / 0 m
21 148 ft / 45 m 6,534 ft / 1,992 m 203.71° 206.44° Asphalt 0 ft / 0 m 0 ft / 0 m
31 151 ft / 46 m 9,789 ft / 2,984 m 301.42° 304.15° Asphalt 0 ft / 0 m 0 ft / 0 m

RJAA

Details ICAO RJAA (NRT)
Name NARITA INTL
Region Japan
Timezone Asia/Tokyo (UTC+9.0)
Stats Elevation 141 ft / 43 m (AMSL)
Location 35.776552° 140.382770°
Runways 2
Magnetic Variation 7.405° W

METAR

RJAA 141830Z VRB01KT CAVOK M01/M03 Q1024 NOSIG RMK A3025

Decode

TAF

TAF RJAA 141705Z 1418/1600 33004KT 9999 FEW030= TAF RJBB 141707Z 1418/1600 03008KT 9999 FEW020 BKN040 BECMG 1509/1512 19005KT

Decode

Destination Runways

ID Width Length Bearing (true) Bearing (mag) Surface Threshold Offset Overrun Length
16L 196 ft / 60 m 7,162 ft / 2,183 m 149.61° 157.02° Asphalt 190 ft / 58 m 0 ft / 0 m
16R 196 ft / 60 m 13,142 ft / 4,006 m 149.61° 157.02° Asphalt 0 ft / 0 m 410 ft / 125 m
34L 196 ft / 60 m 13,142 ft / 4,006 m 329.62° 337.03° Asphalt 0 ft / 0 m 415 ft / 126 m
34R 196 ft / 60 m 7,162 ft / 2,183 m 329.62° 337.03° Asphalt 190 ft / 58 m 0 ft / 0 m

Approach Navaids

Runway Type Ident Frequency Range Bearing (true) Bearing (mag) Slope Elevation
16L Localiser ITM 110.70 MHz 18 nm / 33 km 149.62° 157.02° - 141 ft / 43 m (AMSL)
16L Glidescope ITM 110.70 MHz 10 nm / 19 km 149.62° 157.02° 3.00° 141 ft / 43 m (AMSL)
16L DME ITM 110.70 MHz 18 nm / 33 km - - - 145 ft / 44 m (AMSL)
16R Localiser IKF 111.50 MHz 18 nm / 33 km 149.63° 157.03° - 141 ft / 43 m (AMSL)
16R Glidescope IKF 111.50 MHz 10 nm / 19 km 149.62° 157.02° 3.00° 141 ft / 43 m (AMSL)
16R DME IKF 111.50 MHz 18 nm / 33 km - - - 145 ft / 44 m (AMSL)
34L Localiser IYQ 111.90 MHz 18 nm / 33 km 329.61° 337.01° - 141 ft / 43 m (AMSL)
34L Glidescope IYQ 111.90 MHz 10 nm / 19 km 329.62° 337.02° 3.00° 141 ft / 43 m (AMSL)
34L DME IYQ 111.90 MHz 18 nm / 33 km - - - 153 ft / 47 m (AMSL)
34R Localiser ITJ 110.90 MHz 18 nm / 33 km 329.62° 337.02° - 141 ft / 43 m (AMSL)
34R Glidescope ITJ 110.90 MHz 10 nm / 19 km 329.62° 337.02° 3.00° 141 ft / 43 m (AMSL)
34R DME ITJ 110.90 MHz 18 nm / 33 km - - - 148 ft / 45 m (AMSL)